KHKS/HKS METAR and TAF weather

Enter ICAO airport designator
Station Type Date Time Source
KHKS METAR 2020/04/01 23:53 UTC NOAA

KHKS 012353Z 00000KT 10SM CLR 21/06 A2999 RMK AO2 SLP151 T02060056 10233 20206 53002


Station Type Date Time Source
KHKS Decoded METAR 2020/04/01 23:53 UTC NOAA

HAWKINS FIELD, MS, United States (KHKS) 32-20N 090-13W 108M
Apr 01, 2020 - 07:53 PM EDT / 2020.04.01 2353 UTC
Wind: Calm:0
Visibility: 10 mile(s):0
Sky conditions: clear
Temperature: 69.1 F (20.6 C)
Dew Point: 42.1 F (5.6 C)
Relative Humidity: 37%
Pressure (altimeter): 29.99 in. Hg (1015 hPa)
Pressure tendency: 0.01 inches (0.2 hPa) higher than three hours ago
ob: KHKS 012353Z 00000KT 10SM CLR 21/06 A2999 RMK AO2 SLP151 T02060056 10233 20206 53002
cycle: 0

Station Type Date Time Source
KHKS TAF 2020/04/01 18:22 UTC NOAA

TAF KHKS 011720Z 0118/0218 26005KT P6SM SKC
FM012100 34005KT P6SM SKC

Example: see airport list